Time;durP1;ratioP1;P1;durP2;ratioP2;P2;SDS_P1;SDS_P2;PMS_P1;PMS_P2;Temp;Humidity;BMP_temperature;BMP_pressure;BME280_temperature;BME280_humidity;BME280_pressure;Samples;Min_cycle;Max_cycle;Signal;HPM_P1;HPM_P2
2022/12/20 00:01:33;;;;;;;5.28;4.43;;;;;;;9.72;82.74;101272.16;5051571;28;20115;-67
2022/12/20 00:04:02;;;;;;;8.07;4.55;;;;;;;9.72;82.65;101280.97;5051306;28;20055;-66
2022/12/20 00:06:30;;;;;;;5.53;4.32;;;;;;;9.74;82.10;101281.78;5050277;28;20025;-66
2022/12/20 00:09:01;;;;;;;8.32;4.95;;;;;;;9.75;82.59;101283.47;5051061;28;20484;-67
2022/12/20 00:11:29;;;;;;;9.60;4.43;;;;;;;9.81;82.29;101279.63;5049993;28;20480;-66
2022/12/20 00:13:55;;;;;;;7.03;4.95;;;;;;;9.88;81.48;101269.53;5051295;28;20013;-66
2022/12/20 00:16:26;;;;;;;6.85;4.65;;;;;;;9.81;81.77;101276.13;5051572;28;20392;-66
2022/12/20 00:18:54;;;;;;;6.05;4.57;;;;;;;9.84;81.96;101270.66;5050997;28;20480;-66
2022/12/20 00:21:21;;;;;;;8.38;4.95;;;;;;;9.84;81.95;101266.19;5051142;28;20128;-67
2022/12/20 00:23:46;;;;;;;10.02;5.30;;;;;;;9.95;80.95;101269.13;5051153;28;20025;-66
2022/12/20 00:26:15;;;;;;;7.80;5.07;;;;;;;9.93;81.47;101271.00;5051331;28;20029;-66
2022/12/20 00:28:41;;;;;;;7.97;5.78;;;;;;;9.98;81.37;101261.00;5051128;28;20057;-66
2022/12/20 00:31:08;;;;;;;10.15;5.40;;;;;;;9.97;81.18;101263.72;5051143;28;20112;-66
2022/12/20 00:33:34;;;;;;;10.35;5.20;;;;;;;10.00;80.85;101250.31;5050707;28;20025;-67
2022/12/20 00:36:00;;;;;;;8.68;4.95;;;;;;;9.94;80.47;101237.31;5050187;28;20029;-66
2022/12/20 00:38:26;;;;;;;6.25;5.18;;;;;;;10.03;80.67;101266.09;5050846;28;20036;-66
2022/12/20 00:41:08;;;;;;;8.27;5.45;;;;;;;10.15;80.61;101257.44;5050762;28;20542;-66
2022/12/20 00:43:34;;;;;;;10.68;5.80;;;;;;;10.15;80.51;101243.28;5050871;28;20016;-66
2022/12/20 00:46:00;;;;;;;10.18;5.65;;;;;;;10.15;80.37;101243.28;5050529;28;20506;-66
2022/12/20 00:48:28;;;;;;;9.82;5.75;;;;;;;10.16;79.84;101239.69;5054632;28;20021;-66
2022/12/20 00:51:01;;;;;;;11.82;6.22;;;;;;;10.22;79.89;101244.66;5053787;28;20112;-66
2022/12/20 00:53:27;;;;;;;10.52;5.63;;;;;;;10.23;79.96;101241.03;5053099;28;20547;-66
2022/12/20 00:55:52;;;;;;;9.52;5.38;;;;;;;10.26;79.87;101261.28;5053354;28;20476;-67
2022/12/20 00:58:18;;;;;;;10.90;5.45;;;;;;;10.23;80.00;101244.59;5054383;28;20749;-66
2022/12/20 01:00:44;;;;;;;10.15;5.72;;;;;;;10.24;81.33;101248.09;5054807;28;20056;-66
2022/12/20 01:03:09;;;;;;;11.90;6.20;;;;;;;10.26;81.37;101248.00;5053844;28;20061;-66
2022/12/20 01:05:38;;;;;;;10.77;5.80;;;;;;;10.24;82.05;101248.09;5053237;28;20032;-66
2022/12/20 01:08:06;;;;;;;10.77;5.97;;;;;;;10.20;83.35;101235.91;5032850;28;20063;-66
2022/12/20 01:10:32;;;;;;;9.23;5.43;;;;;;;10.15;84.78;101246.81;5033635;28;20048;-66
2022/12/20 01:13:00;;;;;;;10.00;5.75;;;;;;;10.11;85.36;101253.22;5033081;28;20029;-66
2022/12/20 01:15:26;;;;;;;11.50;5.35;;;;;;;10.08;85.52;101255.19;5034686;28;20025;-66
2022/12/20 01:17:52;;;;;;;8.07;5.47;;;;;;;10.12;85.78;101262.91;5035907;28;20021;-66
2022/12/20 01:20:18;;;;;;;10.27;5.82;;;;;;;10.06;86.23;101252.63;5051776;28;20052;-66
2022/12/20 01:22:44;;;;;;;8.13;5.38;;;;;;;10.05;87.44;101242.91;5053243;28;20484;-66
2022/12/20 01:25:09;;;;;;;7.50;5.10;;;;;;;10.02;88.88;101232.47;5036436;28;20021;-67
2022/12/20 01:27:35;;;;;;;7.72;5.25;;;;;;;9.96;90.47;101256.69;5069355;28;20025;-66
2022/12/20 01:30:01;;;;;;;8.60;5.43;;;;;;;9.87;91.58;101242.13;5053058;28;20029;-67
2022/12/20 01:32:26;;;;;;;7.47;5.53;;;;;;;9.78;93.19;101264.72;5052687;28;20029;-67
2022/12/20 01:34:55;;;;;;;8.90;5.78;;;;;;;9.70;94.13;101250.97;5052893;28;20381;-67
2022/12/20 01:37:20;;;;;;;9.05;5.50;;;;;;;9.68;94.12;101241.41;5052626;28;20025;-67
2022/12/20 01:39:46;;;;;;;7.10;5.05;;;;;;;9.61;95.32;101242.66;5052539;28;20028;-66
2022/12/20 01:42:15;;;;;;;12.45;5.65;;;;;;;9.58;96.46;101227.72;5052582;28;20029;-66
2022/12/20 01:44:41;;;;;;;8.40;5.70;;;;;;;9.54;96.74;101232.34;5053953;28;20028;-66
2022/12/20 01:47:06;;;;;;;7.18;4.85;;;;;;;9.51;97.36;101226.34;5053811;28;20033;-66
2022/12/20 01:49:45;;;;;;;7.80;5.28;;;;;;;9.53;98.17;101228.00;5053416;28;20194;-66
2022/12/20 01:52:21;;;;;;;8.25;4.75;;;;;;;9.48;98.67;101219.41;5054080;28;20029;-66
2022/12/20 01:54:46;;;;;;;8.80;5.40;;;;;;;9.47;98.75;101193.78;5053073;28;20032;-67
2022/12/20 01:57:16;;;;;;;8.43;4.90;;;;;;;9.43;100.00;101204.66;5053452;28;20036;-66
2022/12/20 01:59:45;;;;;;;7.80;5.30;;;;;;;9.44;99.93;101201.03;5052545;28;20495;-66
2022/12/20 02:02:11;;;;;;;9.50;5.38;;;;;;;9.42;100.00;101208.25;5053626;28;20021;-66
2022/12/20 02:04:37;;;;;;;13.80;6.68;;;;;;;9.38;100.00;101198.72;5053543;28;20031;-66
2022/12/20 02:07:04;;;;;;;11.65;6.22;;;;;;;9.33;100.00;101205.13;5052238;28;20033;-67
2022/12/20 02:09:32;;;;;;;12.27;6.55;;;;;;;9.36;100.00;101201.47;5053160;28;20045;-67
2022/12/20 02:12:20;;;;;;;11.02;6.65;;;;;;;9.38;100.00;101198.72;5053473;28;20032;-66
2022/12/20 02:14:56;;;;;;;12.35;6.50;;;;;;;9.37;100.00;101195.19;5053386;28;20025;-66
2022/12/20 02:17:44;;;;;;;10.48;5.63;;;;;;;9.35;100.00;101186.44;5053407;28;20036;-67
2022/12/20 02:20:30;;;;;;;7.07;5.50;;;;;;;9.32;100.00;101181.31;5042743;28;20052;-66
2022/12/20 02:23:28;;;;;;;6.95;5.15;;;;;;;9.29;100.00;101168.19;5049096;28;20032;-67
2022/12/20 02:26:11;;;;;;;8.15;4.50;;;;;;;9.27;100.00;101167.44;5050998;28;20033;-66
2022/12/20 02:28:56;;;;;;;5.43;4.88;;;;;;;9.26;100.00;101169.22;5052419;28;20039;-67
2022/12/20 02:31:38;;;;;;;5.72;4.93;;;;;;;9.27;100.00;101172.75;5033242;28;20100;-66
2022/12/20 02:34:08;;;;;;;5.55;4.50;;;;;;;9.23;100.00;101174.69;5048109;28;20021;-66
2022/12/20 02:36:33;;;;;;;;;;;;;;;9.35;100.00;101164.38;5053459;28;20111;-66
2022/12/20 02:39:01;;;;;;;6.03;5.40;;;;;;;9.23;100.00;101158.75;5047158;28;20067;-66
2022/12/20 02:41:40;;;;;;;5.07;4.30;;;;;;;9.24;100.00;101157.00;5048348;28;20025;-66
2022/12/20 02:47:01;;;;;;;7.03;4.80;;;;;;;9.25;100.00;101159.53;5045283;28;20063;-66
2022/12/20 02:49:31;;;;;;;7.38;4.53;;;;;;;9.27;99.95;101165.63;5036617;28;20076;-66
2022/12/20 02:52:00;;;;;;;4.85;4.35;;;;;;;9.28;99.72;101153.22;5032933;28;20032;-66
2022/12/20 02:54:27;;;;;;;4.80;4.07;;;;;;;9.29;99.45;101149.63;5032226;28;20029;-66
2022/12/20 02:57:20;;;;;;;6.72;4.45;;;;;;;9.36;99.02;101155.47;5032984;28;20057;-66
2022/12/20 03:00:09;;;;;;;7.70;4.28;;;;;;;9.33;98.77;101159.16;5046911;28;20463;-66
2022/12/20 03:05:23;;;;;;;8.90;4.30;;;;;;;9.32;97.77;101145.03;5052934;28;20078;-66
2022/12/20 03:07:52;;;;;;;4.97;4.32;;;;;;;9.42;96.95;101144.53;5052425;28;20071;-66
2022/12/20 03:10:18;;;;;;;5.18;4.10;;;;;;;9.43;96.72;101162.16;5051727;28;20025;-67
2022/12/20 03:12:44;;;;;;;6.78;4.60;;;;;;;9.47;96.31;101147.78;5051270;28;20476;-66
2022/12/20 03:15:10;;;;;;;4.63;4.07;;;;;;;9.52;95.67;101149.25;5032356;28;20043;-66
2022/12/20 03:17:36;;;;;;;8.13;4.65;;;;;;;9.60;95.22;101146.19;5031329;28;20840;-66
2022/12/20 03:20:05;;;;;;;5.78;4.10;;;;;;;9.62;94.29;101148.75;5044407;28;20115;-66
2022/12/20 03:22:32;;;;;;;5.90;4.22;;;;;;;9.67;94.27;101146.72;5052302;28;20510;-66
2022/12/20 03:25:00;;;;;;;4.85;4.05;;;;;;;9.69;93.78;101148.34;5036792;28;20028;-66
2022/12/20 03:27:27;;;;;;;6.63;4.10;;;;;;;9.77;93.39;101135.50;5047608;28;20069;-66
2022/12/20 03:29:56;;;;;;;6.97;4.03;;;;;;;9.77;93.75;101139.97;5032184;28;20033;-66
2022/12/20 03:32:21;;;;;;;5.05;3.72;;;;;;;9.81;93.07;101135.34;5053393;28;20024;-66
2022/12/20 03:34:47;;;;;;;4.18;3.40;;;;;;;9.83;92.70;101134.31;5049558;28;20098;-66
2022/12/20 03:37:13;;;;;;;4.18;3.58;;;;;;;9.88;92.35;101142.00;5065700;28;20066;-66
2022/12/20 03:39:38;;;;;;;3.88;3.58;;;;;;;9.90;91.95;101145.44;5067909;28;20060;-66
2022/12/20 03:42:04;;;;;;;4.15;3.75;;;;;;;9.93;91.55;101155.91;5045153;28;20297;-66
2022/12/20 03:44:29;;;;;;;4.55;3.80;;;;;;;10.01;91.45;101151.03;5062822;28;20021;-66
2022/12/20 03:46:55;;;;;;;6.97;4.25;;;;;;;10.08;90.33;101149.72;5033787;28;20119;-66
2022/12/20 03:49:21;;;;;;;5.13;4.13;;;;;;;10.11;90.70;101157.53;5070275;28;20020;-65
2022/12/20 03:51:46;;;;;;;4.07;3.72;;;;;;;10.12;90.38;101153.09;5068763;28;20032;-66
2022/12/20 03:54:12;;;;;;;4.18;3.80;;;;;;;10.10;90.37;101142.53;5051694;28;20024;-66
2022/12/20 03:56:37;;;;;;;5.00;3.90;;;;;;;10.12;90.22;101135.34;5064443;28;20028;-66
2022/12/20 03:59:03;;;;;;;5.60;3.88;;;;;;;10.18;89.95;101140.31;5070224;28;20506;-66
2022/12/20 04:01:28;;;;;;;5.45;3.50;;;;;;;10.23;89.95;101145.34;5067825;28;20028;-66
2022/12/20 04:03:55;;;;;;;4.47;3.88;;;;;;;10.20;90.43;101142.88;5070033;28;20024;-67
2022/12/20 04:06:21;;;;;;;5.63;3.80;;;;;;;10.23;89.73;101137.38;5068040;28;20457;-66
2022/12/20 04:08:49;;;;;;;5.50;4.03;;;;;;;10.31;89.36;101134.31;5052701;28;20068;-66
2022/12/20 04:11:18;;;;;;;7.22;3.90;;;;;;;10.30;89.02;101136.13;5070265;28;20040;-66
2022/12/20 04:13:53;;;;;;;4.80;3.95;;;;;;;10.32;89.54;101144.00;5056485;28;20029;-66
2022/12/20 04:16:24;;;;;;;4.88;3.55;;;;;;;10.34;88.65;101132.34;5060324;28;20476;-66
2022/12/20 04:18:50;;;;;;;4.30;3.70;;;;;;;10.34;88.91;101139.47;5062166;28;20036;-67
2022/12/20 04:21:22;;;;;;;3.60;3.30;;;;;;;10.32;88.58;101130.72;5053819;28;20056;-66
2022/12/20 04:23:48;;;;;;;4.47;3.85;;;;;;;10.37;88.56;101140.13;5071284;28;20187;-66
2022/12/20 04:26:13;;;;;;;6.63;3.25;;;;;;;10.44;88.34;101136.19;5073436;28;20036;-66
2022/12/20 04:28:39;;;;;;;5.82;3.83;;;;;;;10.42;88.25;101130.09;5063610;28;20055;-66
2022/12/20 04:31:05;;;;;;;4.95;3.30;;;;;;;10.42;88.39;101124.78;5066595;28;20468;-66
2022/12/20 04:33:31;;;;;;;6.43;3.97;;;;;;;10.40;87.94;101121.34;5053598;28;20079;-66
2022/12/20 04:35:56;;;;;;;3.95;3.38;;;;;;;10.42;87.80;101126.59;5055426;28;20028;-67
2022/12/20 04:38:25;;;;;;;4.85;3.65;;;;;;;10.45;87.73;101129.91;5054711;28;20025;-67
2022/12/20 04:40:52;;;;;;;4.70;3.40;;;;;;;10.40;88.49;101121.34;5055008;28;20506;-66
2022/12/20 04:43:18;;;;;;;4.45;3.85;;;;;;;10.44;88.05;101122.00;5054216;28;20029;-66
2022/12/20 04:45:47;;;;;;;8.68;4.13;;;;;;;10.43;88.40;101120.31;5054963;28;20482;-66
2022/12/20 04:48:13;;;;;;;7.47;3.90;;;;;;;10.48;88.04;101120.91;5037935;28;20036;-66
2022/12/20 04:50:39;;;;;;;4.38;3.50;;;;;;;10.46;88.24;101120.13;5046025;28;20052;-66
2022/12/20 04:55:49;;;;;;;4.50;3.70;;;;;;;10.52;87.87;101138.38;5054844;28;20505;-66
2022/12/20 04:58:15;;;;;;;3.80;3.38;;;;;;;10.54;88.00;101123.22;5054925;28;20056;-66
2022/12/20 05:00:43;;;;;;;4.20;3.58;;;;;;;10.52;88.35;101118.94;5048268;28;20463;-66
2022/12/20 05:03:09;;;;;;;4.22;3.72;;;;;;;10.49;88.30;101111.97;5054670;28;20041;-66
2022/12/20 05:05:35;;;;;;;5.65;3.60;;;;;;;10.51;88.76;101106.59;5053464;28;20123;-65
2022/12/20 05:08:00;;;;;;;6.32;3.58;;;;;;;10.50;89.01;101104.84;5054391;28;20036;-66
2022/12/20 05:10:25;;;;;;;7.47;3.50;;;;;;;10.51;88.79;101106.59;5069058;28;20040;-66
2022/12/20 05:12:51;;;;;;;4.65;3.55;;;;;;;10.48;88.90;101102.28;5036567;28;20490;-66
2022/12/20 05:15:17;;;;;;;4.22;3.83;;;;;;;10.50;88.93;101102.19;5053231;28;20123;-66
2022/12/20 05:17:45;;;;;;;4.60;3.40;;;;;;;10.51;89.24;101102.13;5070152;28;20116;-66
2022/12/20 05:20:11;;;;;;;4.43;3.80;;;;;;;10.51;89.01;101094.13;5048310;28;20483;-67
2022/12/20 05:28:07;;;;;;;5.90;3.63;;;;;;;10.45;89.62;101065.25;5042398;28;20048;-66
2022/12/20 05:30:35;;;;;;;4.97;3.72;;;;;;;10.52;89.29;101076.38;5048292;28;20033;-66
2022/12/20 05:33:01;;;;;;;4.78;3.55;;;;;;;10.49;89.58;101073.91;5053354;28;20029;-66
2022/12/20 05:35:26;;;;;;;6.47;3.78;;;;;;;10.52;89.60;101079.88;5068769;28;20086;-66
2022/12/20 05:37:52;;;;;;;5.95;4.13;;;;;;;10.49;89.43;101082.72;5053488;28;20048;-66
2022/12/20 05:40:19;;;;;;;5.97;3.85;;;;;;;10.47;89.77;101071.34;5033954;28;20025;-66
2022/12/20 05:42:47;;;;;;;7.78;3.50;;;;;;;10.48;89.47;101061.56;5054124;28;20038;-66
2022/12/20 05:45:13;;;;;;;4.07;3.30;;;;;;;10.44;89.98;101069.72;5054197;28;20044;-66
2022/12/20 05:47:39;;;;;;;6.40;3.50;;;;;;;10.38;90.37;101059.44;5036275;28;20110;-66
2022/12/20 05:50:05;;;;;;;4.90;3.90;;;;;;;10.37;90.20;101059.53;5052147;28;20033;-66
2022/12/20 05:52:30;;;;;;;4.88;3.60;;;;;;;10.41;89.73;101066.34;5052335;28;20402;-66
2022/12/20 05:54:57;;;;;;;5.93;3.70;;;;;;;10.39;90.00;101053.16;5054699;28;20037;-66
2022/12/20 05:57:25;;;;;;;4.80;3.83;;;;;;;10.37;89.86;101056.88;5053898;28;20036;-66
2022/12/20 05:59:51;;;;;;;3.90;3.50;;;;;;;10.37;89.92;101047.06;5053530;28;20025;-67
2022/12/20 06:02:16;;;;;;;5.07;3.97;;;;;;;10.37;89.70;101047.06;5052711;28;20054;-66
2022/12/20 06:04:42;;;;;;;5.18;3.58;;;;;;;10.34;89.88;101033.13;5052429;28;20029;-66
2022/12/20 06:07:07;;;;;;;5.18;3.83;;;;;;;10.34;89.57;101028.66;5068825;28;20037;-66
2022/12/20 06:09:33;;;;;;;4.78;3.70;;;;;;;10.36;89.53;101015.28;5051485;28;20123;-66
2022/12/20 06:11:58;;;;;;;7.20;3.40;;;;;;;10.32;89.28;101008.41;5052316;28;20112;-66
2022/12/20 06:14:24;;;;;;;4.10;3.65;;;;;;;10.29;89.13;100998.81;5051498;28;20121;-66
2022/12/20 06:16:50;;;;;;;4.15;3.40;;;;;;;10.29;89.02;101008.59;5052268;28;20431;-67
2022/12/20 06:19:16;;;;;;;6.18;3.83;;;;;;;10.30;88.73;101003.22;5051644;28;20063;-66
2022/12/20 06:21:41;;;;;;;4.25;3.63;;;;;;;10.28;88.65;101017.53;5035026;28;20526;-67
2022/12/20 06:24:10;;;;;;;3.83;3.42;;;;;;;10.26;88.59;101009.59;5051321;28;20032;-67
2022/12/20 06:26:35;;;;;;;5.05;4.13;;;;;;;10.24;88.10;101006.19;5052874;28;20594;-67
2022/12/20 06:29:09;;;;;;;3.92;3.45;;;;;;;10.22;88.29;101018.72;5051779;28;20032;-66
2022/12/20 06:31:35;;;;;;;4.93;3.42;;;;;;;10.22;87.40;101010.75;5052506;28;20025;-66
2022/12/20 06:34:06;;;;;;;4.57;3.60;;;;;;;10.27;87.27;101021.16;5052219;28;20036;-67
2022/12/20 06:36:32;;;;;;;5.47;3.58;;;;;;;10.24;87.26;101020.34;5051394;28;20067;-67
2022/12/20 06:38:58;;;;;;;5.25;3.53;;;;;;;10.27;87.07;101021.16;5050797;28;20045;-66
2022/12/20 06:41:23;;;;;;;5.68;3.67;;;;;;;10.26;86.61;101019.38;5052970;28;20029;-67
2022/12/20 06:43:49;;;;;;;7.05;3.70;;;;;;;10.27;86.18;101019.34;5051167;28;20132;-66
2022/12/20 06:46:14;;;;;;;3.78;3.25;;;;;;;10.30;85.91;101008.53;5051491;28;20037;-66
2022/12/20 06:48:40;;;;;;;6.13;3.22;;;;;;;10.30;85.46;101019.16;5051349;28;20044;-66
2022/12/20 06:51:08;;;;;;;5.63;3.30;;;;;;;10.31;85.74;101020.84;5052390;28;20085;-66
2022/12/20 06:53:36;;;;;;;4.45;3.28;;;;;;;10.35;84.94;101017.09;5052131;28;20044;-66
2022/12/20 06:56:01;;;;;;;5.97;3.78;;;;;;;10.32;85.05;101019.91;5035021;28;20045;-66
2022/12/20 06:58:26;;;;;;;4.55;3.58;;;;;;;10.36;84.68;101026.75;5031341;28;20090;-66
2022/12/20 07:00:53;;;;;;;6.95;3.72;;;;;;;10.37;84.44;101022.31;5044168;28;20108;-67
2022/12/20 07:03:19;;;;;;;5.68;3.63;;;;;;;10.34;84.65;101018.00;5051398;28;20495;-67
2022/12/20 07:05:50;;;;;;;3.67;3.38;;;;;;;10.39;84.59;101026.59;5050656;28;20108;-66
2022/12/20 07:08:16;;;;;;;4.40;3.55;;;;;;;10.39;83.91;101023.94;5056865;28;20202;-66
2022/12/20 07:10:41;;;;;;;4.63;3.65;;;;;;;10.39;83.72;101025.72;5051248;28;20036;-66
2022/12/20 07:13:08;;;;;;;4.13;3.72;;;;;;;10.42;84.02;101031.72;5059818;28;20146;-67
2022/12/20 07:15:34;;;;;;;6.82;3.40;;;;;;;10.42;83.57;101018.41;5053476;28;20035;-66
2022/12/20 07:17:59;;;;;;;3.78;2.92;;;;;;;10.41;83.47;101022.03;5050844;28;20104;-67
2022/12/20 07:20:25;;;;;;;4.97;3.50;;;;;;;10.44;83.55;101031.59;5057109;28;20056;-67
2022/12/20 07:22:51;;;;;;;3.88;3.28;;;;;;;10.44;83.06;101032.50;5070834;28;20140;-66
2022/12/20 07:25:16;;;;;;;3.85;3.35;;;;;;;10.42;83.57;101023.75;5060640;28;20116;-66
2022/12/20 07:27:42;;;;;;;4.50;3.50;;;;;;;10.53;82.17;101030.22;5051007;28;20098;-66
2022/12/20 07:30:08;;;;;;;4.68;3.20;;;;;;;10.52;82.21;101021.38;5052101;28;20112;-66
2022/12/20 07:32:34;;;;;;;3.78;3.13;;;;;;;10.55;82.34;101028.31;5034138;28;20032;-67
2022/12/20 07:35:01;;;;;;;4.53;2.97;;;;;;;10.56;82.32;101032.69;5045468;28;20048;-67
2022/12/20 07:37:28;;;;;;;4.75;3.30;;;;;;;10.54;82.08;101026.63;5050685;28;20107;-67
2022/12/20 07:39:54;;;;;;;3.50;3.20;;;;;;;10.54;82.22;101035.44;5051552;28;20036;-67
2022/12/20 07:42:24;;;;;;;5.15;3.25;;;;;;;10.59;81.86;101037.81;5067219;28;20033;-66
2022/12/20 07:44:50;;;;;;;4.68;3.22;;;;;;;10.58;81.54;101036.13;5050178;28;20033;-67
2022/12/20 07:47:17;;;;;;;3.15;2.85;;;;;;;10.57;81.54;101043.25;5032465;28;20086;-66
2022/12/20 07:49:43;;;;;;;3.42;3.13;;;;;;;10.60;81.38;101045.72;5051214;28;20480;-65
2022/12/20 07:52:11;;;;;;;7.07;3.38;;;;;;;10.51;81.22;101027.66;5051471;28;20098;-66
2022/12/20 07:54:44;;;;;;;5.07;3.03;;;;;;;10.62;81.61;101054.47;5050597;28;20032;-66
2022/12/20 07:57:17;;;;;;;4.80;3.10;;;;;;;10.59;81.77;101046.69;5050495;28;20387;-66
2022/12/20 07:59:49;;;;;;;3.63;3.30;;;;;;;10.56;82.44;101056.63;5051786;28;20461;-66
2022/12/20 08:02:38;;;;;;;4.25;3.40;;;;;;;10.54;83.17;101055.88;5050482;28;20032;-66
2022/12/20 08:05:08;;;;;;;3.47;3.07;;;;;;;10.49;84.06;101049.97;5050805;28;20037;-66
2022/12/20 08:07:37;;;;;;;3.97;3.22;;;;;;;10.54;83.98;101051.41;5049439;28;20037;-66
2022/12/20 08:10:04;;;;;;;4.72;3.25;;;;;;;10.49;85.04;101042.00;5050733;28;20113;-66
2022/12/20 08:12:34;;;;;;;6.35;3.58;;;;;;;10.44;85.73;101045.78;5050145;28;20025;-66
2022/12/20 08:15:01;;;;;;;4.97;3.35;;;;;;;10.40;86.50;101046.91;5051204;28;20457;-66
2022/12/20 08:17:26;;;;;;;4.88;3.20;;;;;;;10.45;86.34;101042.16;5051053;28;20526;-66
2022/12/20 08:19:57;;;;;;;6.38;3.50;;;;;;;10.48;85.51;101048.25;5049135;28;20037;-66
2022/12/20 08:22:24;;;;;;;4.18;3.50;;;;;;;10.39;87.35;101041.69;5049928;28;20033;-66
2022/12/20 08:24:50;;;;;;;4.32;3.67;;;;;;;10.39;88.27;101047.00;5050421;28;20087;-66
2022/12/20 08:27:16;;;;;;;3.75;3.28;;;;;;;10.42;87.91;101047.66;5050238;28;20037;-66
2022/12/20 08:29:44;;;;;;;4.90;3.47;;;;;;;10.35;89.24;101045.44;5029766;28;20100;-66
2022/12/20 08:32:15;;;;;;;7.75;4.20;;;;;;;10.33;89.80;101047.38;5031065;28;20031;-66
2022/12/20 08:34:41;;;;;;;4.10;3.70;;;;;;;10.26;91.41;101038.84;5031101;28;20121;-66
2022/12/20 08:37:06;;;;;;;4.03;3.60;;;;;;;10.23;91.16;101039.91;5029986;28;20116;-66
2022/12/20 08:39:32;;;;;;;3.78;3.28;;;;;;;10.30;90.37;101036.91;5037248;28;20041;-67
2022/12/20 08:41:57;;;;;;;4.47;3.58;;;;;;;10.22;90.79;101034.66;5050042;28;20036;-66
2022/12/20 08:44:23;;;;;;;6.47;4.07;;;;;;;10.18;91.91;101026.00;5049541;28;20039;-66
2022/12/20 08:46:48;;;;;;;5.00;3.72;;;;;;;10.14;92.69;101036.91;5033051;28;20060;-66
2022/12/20 08:49:14;;;;;;;4.55;3.58;;;;;;;10.11;92.61;101035.28;5032860;28;20506;-66
2022/12/20 08:51:39;;;;;;;6.75;3.80;;;;;;;10.10;94.01;101032.72;5049642;28;20036;-67
2022/12/20 08:54:05;;;;;;;5.90;3.70;;;;;;;10.04;94.96;101025.09;5032501;28;20037;-67
2022/12/20 08:56:30;;;;;;;4.43;3.88;;;;;;;9.95;95.55;101032.66;5032606;28;20037;-67
2022/12/20 08:58:56;;;;;;;7.43;4.18;;;;;;;9.93;96.20;101034.53;5045906;28;20040;-67
2022/12/20 09:01:22;;;;;;;6.90;4.22;;;;;;;9.89;96.73;101021.53;5050210;28;20025;-67
2022/12/20 09:03:50;;;;;;;4.38;3.97;;;;;;;9.83;97.45;101020.09;5049425;28;20391;-67
2022/12/20 09:06:20;;;;;;;5.82;3.70;;;;;;;9.81;98.21;101021.97;5049699;28;20029;-67
2022/12/20 09:08:45;;;;;;;;;;;;;;;9.95;96.36;101027.34;5052764;28;20032;-67
2022/12/20 09:11:20;;;;;;;6.40;4.15;;;;;;;9.83;98.11;101005.97;5053373;28;20276;-67
2022/12/20 09:13:48;;;;;;;5.55;3.92;;;;;;;9.81;98.38;101007.84;5054366;28;20396;-67
2022/12/20 09:16:16;;;;;;;7.63;4.20;;;;;;;9.74;98.70;101008.19;5054824;28;20025;-66
2022/12/20 09:18:42;;;;;;;6.60;3.80;;;;;;;9.74;98.88;100997.56;5054079;28;20032;-67
2022/12/20 09:21:09;;;;;;;5.57;4.22;;;;;;;9.77;99.79;101007.16;5036575;28;20412;-66
2022/12/20 09:23:36;;;;;;;4.45;3.60;;;;;;;9.81;99.74;101021.13;5053817;28;20021;-67
2022/12/20 09:26:07;;;;;;;6.03;3.85;;;;;;;9.85;99.51;101012.00;5054493;28;20040;-66
2022/12/20 09:28:33;;;;;;;7.00;4.25;;;;;;;9.87;99.37;101012.78;5054539;28;20040;-65
2022/12/20 09:31:06;;;;;;;5.30;4.10;;;;;;;9.87;100.00;101012.78;5050497;28;20044;-66
2022/12/20 09:33:35;;;;;;;5.25;4.15;;;;;;;9.91;99.90;101014.31;5062967;28;20330;-66
2022/12/20 09:36:01;;;;;;;6.57;4.13;;;;;;;9.90;99.44;101018.78;5062118;28;20182;-66
2022/12/20 09:38:28;;;;;;;5.38;3.85;;;;;;;9.96;99.56;101014.91;5061937;28;20082;-66
2022/12/20 09:40:57;;;;;;;5.43;4.05;;;;;;;9.98;99.69;101010.38;5051861;28;20526;-66
2022/12/20 09:43:24;;;;;;;5.88;4.20;;;;;;;9.97;99.49;101006.88;5053163;28;20052;-66
2022/12/20 09:45:56;;;;;;;5.32;4.40;;;;;;;10.02;99.11;101006.59;5050786;28;20034;-66
2022/12/20 09:48:29;;;;;;;4.28;3.47;;;;;;;9.98;99.12;101013.03;5049468;28;20100;-66
2022/12/20 09:51:12;;;;;;;5.00;3.95;;;;;;;10.01;98.75;101013.72;5056618;28;20437;-66
2022/12/20 09:53:56;;;;;;;9.02;4.30;;;;;;;10.02;99.08;101009.25;5047244;28;20021;-66
2022/12/20 09:56:34;;;;;;;4.50;3.58;;;;;;;9.98;98.91;101005.91;5052267;28;20031;-66
2022/12/20 09:59:04;;;;;;;5.55;3.90;;;;;;;10.03;98.15;101010.97;5046802;28;20028;-66
2022/12/20 10:01:36;;;;;;;7.20;3.92;;;;;;;10.04;98.71;101006.50;5052926;28;20048;-65
2022/12/20 10:04:05;;;;;;;5.82;3.47;;;;;;;10.05;98.44;101000.25;5057715;28;20029;-66
2022/12/20 10:06:49;;;;;;;4.28;3.72;;;;;;;10.16;97.48;101009.28;5056452;28;20384;-66
2022/12/20 10:09:40;;;;;;;5.63;4.00;;;;;;;10.14;97.47;101007.66;5055124;28;20033;-66
2022/12/20 10:12:42;;;;;;;4.72;3.55;;;;;;;10.18;96.61;101010.06;5053157;28;20028;-66
2022/12/20 10:15:13;;;;;;;5.93;3.40;;;;;;;10.26;95.19;101004.28;5052452;28;20033;-65
2022/12/20 10:17:47;;;;;;;8.15;3.85;;;;;;;10.31;95.79;101009.38;5050633;28;20037;-66
2022/12/20 10:20:46;;;;;;;5.85;3.83;;;;;;;10.20;95.52;100988.69;5051203;28;20389;-65
2022/12/20 10:23:16;;;;;;;6.53;3.55;;;;;;;10.36;95.07;101002.00;5048649;28;20036;-65
2022/12/20 10:25:43;;;;;;;5.30;3.25;;;;;;;10.41;94.48;101006.09;5052642;28;20040;-65
2022/12/20 10:28:15;;;;;;;5.22;3.50;;;;;;;10.45;94.37;101004.94;5050915;28;20028;-65
2022/12/20 10:30:42;;;;;;;6.13;3.95;;;;;;;10.44;94.55;101011.22;5047724;28;20472;-66
2022/12/20 10:33:18;;;;;;;5.75;3.70;;;;;;;10.41;95.32;101014.06;5045152;28;20499;-65
2022/12/20 10:35:44;;;;;;;6.68;3.78;;;;;;;10.41;95.79;101018.50;5060561;28;20051;-66
2022/12/20 10:38:12;;;;;;;4.47;3.63;;;;;;;10.34;96.99;101006.53;5050125;28;20048;-66
2022/12/20 10:40:41;;;;;;;4.32;3.67;;;;;;;10.32;97.96;101009.25;5048844;28;20024;-66
2022/12/20 10:43:21;;;;;;;7.55;3.97;;;;;;;10.29;98.77;101008.59;5050576;28;20040;-66
2022/12/20 10:46:06;;;;;;;4.50;4.10;;;;;;;10.34;98.80;100994.09;5052217;28;20061;-67
2022/12/20 10:48:38;;;;;;;6.55;4.50;;;;;;;10.21;99.83;100995.75;5050578;28;20048;-68
2022/12/20 10:51:03;;;;;;;5.68;4.28;;;;;;;10.18;100.00;100995.94;5053358;28;20025;-67
2022/12/20 10:53:30;;;;;;;9.10;4.65;;;;;;;10.14;100.00;100992.56;5050130;28;20025;-66
2022/12/20 10:56:22;;;;;;;6.47;4.80;;;;;;;10.20;100.00;100991.34;5042541;28;20021;-66
2022/12/20 10:59:21;;;;;;;5.95;4.55;;;;;;;10.11;100.00;100994.56;5049794;28;20064;-67
2022/12/20 11:01:50;;;;;;;8.20;4.83;;;;;;;10.07;100.00;100982.41;5049357;28;20036;-66
2022/12/20 11:04:37;;;;;;;6.73;3.50;;;;;;;10.15;100.00;100991.66;5049340;28;20420;-66
2022/12/20 11:07:22;;;;;;;6.45;5.38;;;;;;;10.02;100.00;100983.53;5047351;28;20033;-66
2022/12/20 11:09:54;;;;;;;6.15;4.70;;;;;;;10.00;100.00;100981.94;5059034;28;20043;-66
2022/12/20 11:12:22;;;;;;;10.70;5.03;;;;;;;10.00;100.00;100979.28;5051015;28;20028;-67
2022/12/20 11:14:49;;;;;;;7.63;5.07;;;;;;;9.98;100.00;100970.53;5030647;28;20408;-67
2022/12/20 11:17:20;;;;;;;5.93;5.28;;;;;;;9.98;100.00;100986.47;5046268;28;20036;-66
2022/12/20 11:20:21;;;;;;;9.48;5.68;;;;;;;9.99;100.00;100975.72;5049902;28;20146;-68
2022/12/20 11:23:21;;;;;;;7.85;5.82;;;;;;;10.10;100.00;100968.94;5050235;28;20114;-67
2022/12/20 11:26:12;;;;;;;6.88;5.30;;;;;;;10.01;100.00;100967.69;5047404;28;20032;-67
2022/12/20 11:29:02;;;;;;;7.93;5.88;;;;;;;9.95;100.00;100976.03;5050978;28;20021;-66
2022/12/20 11:31:43;;;;;;;6.57;5.90;;;;;;;9.99;100.00;100974.88;5050916;28;20063;-66
2022/12/20 11:34:28;;;;;;;8.80;6.43;;;;;;;10.05;100.00;100952.41;5042955;28;20035;-67
2022/12/20 11:37:08;;;;;;;6.70;6.07;;;;;;;9.97;100.00;100968.78;5045241;28;20040;-67
2022/12/20 11:40:01;;;;;;;9.50;7.00;;;;;;;9.98;100.00;100958.09;5050288;28;20103;-67
2022/12/20 11:42:35;;;;;;;9.07;7.07;;;;;;;9.97;100.00;100960.81;5051154;28;20021;-67
2022/12/20 11:45:14;;;;;;;8.57;7.10;;;;;;;9.91;100.00;100951.44;5047767;28;20048;-67
2022/12/20 11:48:14;;;;;;;11.77;7.38;;;;;;;9.88;100.00;100946.31;5059814;28;20078;-66
2022/12/20 11:50:48;;;;;;;10.68;6.97;;;;;;;9.90;100.00;100948.84;5052373;28;20029;-66
2022/12/20 11:53:32;;;;;;;8.77;6.95;;;;;;;9.92;100.00;100939.00;5055244;28;20533;-66